sensor_id;sensor_type;location;lat;lon;timestamp;P1;P2;P0
12542;PMS3003;6337;49.556;25.594;2024-03-08T00:00:11;22.77;11.38;
12542;PMS3003;6337;49.556;25.594;2024-03-08T00:02:41;20.20;10.75;
12542;PMS3003;6337;49.556;25.594;2024-03-08T00:05:14;17.50;9.80;
12542;PMS3003;6337;49.556;25.594;2024-03-08T00:07:43;18.60;10.32;
12542;PMS3003;6337;49.556;25.594;2024-03-08T00:10:11;17.70;10.48;
12542;PMS3003;6337;49.556;25.594;2024-03-08T00:12:41;20.85;11.63;
12542;PMS3003;6337;49.556;25.594;2024-03-08T00:15:13;19.20;11.18;
12542;PMS3003;6337;49.556;25.594;2024-03-08T00:17:41;16.85;10.85;
12542;PMS3003;6337;49.556;25.594;2024-03-08T00:20:08;16.83;9.93;
12542;PMS3003;6337;49.556;25.594;2024-03-08T00:22:36;14.45;10.50;
12542;PMS3003;6337;49.556;25.594;2024-03-08T00:25:05;19.52;9.82;
12542;PMS3003;6337;49.556;25.594;2024-03-08T00:27:34;19.98;11.25;
12542;PMS3003;6337;49.556;25.594;2024-03-08T00:30:04;17.50;9.70;
12542;PMS3003;6337;49.556;25.594;2024-03-08T00:32:34;42.33;18.65;
12542;PMS3003;6337;49.556;25.594;2024-03-08T00:35:03;92.78;34.45;
12542;PMS3003;6337;49.556;25.594;2024-03-08T00:37:32;82.28;34.08;
12542;PMS3003;6337;49.556;25.594;2024-03-08T00:40:04;42.67;21.77;
12542;PMS3003;6337;49.556;25.594;2024-03-08T00:42:34;20.92;12.63;
12542;PMS3003;6337;49.556;25.594;2024-03-08T00:45:06;20.20;10.27;
12542;PMS3003;6337;49.556;25.594;2024-03-08T00:47:35;18.02;10.45;
12542;PMS3003;6337;49.556;25.594;2024-03-08T00:50:02;15.13;9.55;
12542;PMS3003;6337;49.556;25.594;2024-03-08T00:52:30;16.05;10.02;
12542;PMS3003;6337;49.556;25.594;2024-03-08T00:54:59;17.05;10.43;
12542;PMS3003;6337;49.556;25.594;2024-03-08T00:57:29;18.55;10.95;
12542;PMS3003;6337;49.556;25.594;2024-03-08T00:59:56;12.43;7.97;
12542;PMS3003;6337;49.556;25.594;2024-03-08T01:02:26;15.15;8.98;
12542;PMS3003;6337;49.556;25.594;2024-03-08T01:04:58;17.98;10.02;
12542;PMS3003;6337;49.556;25.594;2024-03-08T01:07:26;19.00;10.73;
12542;PMS3003;6337;49.556;25.594;2024-03-08T01:09:54;16.75;11.02;
12542;PMS3003;6337;49.556;25.594;2024-03-08T01:12:22;16.55;10.43;
12542;PMS3003;6337;49.556;25.594;2024-03-08T01:14:49;21.80;11.70;
12542;PMS3003;6337;49.556;25.594;2024-03-08T01:17:17;20.50;10.40;
12542;PMS3003;6337;49.556;25.594;2024-03-08T01:19:46;18.23;9.68;
12542;PMS3003;6337;49.556;25.594;2024-03-08T01:22:13;18.77;11.63;
12542;PMS3003;6337;49.556;25.594;2024-03-08T01:24:41;15.73;10.10;
12542;PMS3003;6337;49.556;25.594;2024-03-08T01:27:09;16.15;9.70;
12542;PMS3003;6337;49.556;25.594;2024-03-08T01:29:37;16.23;8.82;
12542;PMS3003;6337;49.556;25.594;2024-03-08T01:32:05;24.65;12.15;
12542;PMS3003;6337;49.556;25.594;2024-03-08T01:34:32;20.08;11.90;
12542;PMS3003;6337;49.556;25.594;2024-03-08T01:37:01;26.27;12.50;
12542;PMS3003;6337;49.556;25.594;2024-03-08T01:39:28;18.23;10.90;
12542;PMS3003;6337;49.556;25.594;2024-03-08T01:41:57;18.15;11.18;
12542;PMS3003;6337;49.556;25.594;2024-03-08T01:44:25;20.48;12.63;
12542;PMS3003;6337;49.556;25.594;2024-03-08T01:46:55;24.80;13.48;
12542;PMS3003;6337;49.556;25.594;2024-03-08T01:49:27;21.83;13.50;
12542;PMS3003;6337;49.556;25.594;2024-03-08T01:51:56;19.00;12.52;
12542;PMS3003;6337;49.556;25.594;2024-03-08T01:54:24;21.25;12.25;
12542;PMS3003;6337;49.556;25.594;2024-03-08T01:56:52;23.52;12.70;
12542;PMS3003;6337;49.556;25.594;2024-03-08T01:59:24;24.30;12.27;
12542;PMS3003;6337;49.556;25.594;2024-03-08T02:01:52;32.03;11.68;
12542;PMS3003;6337;49.556;25.594;2024-03-08T02:04:21;23.35;12.05;
12542;PMS3003;6337;49.556;25.594;2024-03-08T02:06:49;18.60;11.90;
12542;PMS3003;6337;49.556;25.594;2024-03-08T02:09:16;18.65;12.68;
12542;PMS3003;6337;49.556;25.594;2024-03-08T02:11:47;18.73;12.30;
12542;PMS3003;6337;49.556;25.594;2024-03-08T02:14:14;27.45;11.85;
12542;PMS3003;6337;49.556;25.594;2024-03-08T02:16:41;24.30;11.45;
12542;PMS3003;6337;49.556;25.594;2024-03-08T02:19:08;20.55;12.45;
12542;PMS3003;6337;49.556;25.594;2024-03-08T02:21:38;21.42;13.27;
12542;PMS3003;6337;49.556;25.594;2024-03-08T02:24:05;23.20;14.05;
12542;PMS3003;6337;49.556;25.594;2024-03-08T02:26:33;19.08;12.02;
12542;PMS3003;6337;49.556;25.594;2024-03-08T02:29:02;29.67;13.75;
12542;PMS3003;6337;49.556;25.594;2024-03-08T02:31:31;24.90;13.75;
12542;PMS3003;6337;49.556;25.594;2024-03-08T02:33:58;19.13;12.40;
12542;PMS3003;6337;49.556;25.594;2024-03-08T02:36:25;25.45;13.05;
12542;PMS3003;6337;49.556;25.594;2024-03-08T02:38:54;27.58;14.98;
12542;PMS3003;6337;49.556;25.594;2024-03-08T02:41:20;27.58;13.00;
12542;PMS3003;6337;49.556;25.594;2024-03-08T02:43:48;29.02;14.48;
12542;PMS3003;6337;49.556;25.594;2024-03-08T02:46:15;38.05;16.38;
12542;PMS3003;6337;49.556;25.594;2024-03-08T02:48:42;52.40;22.05;
12542;PMS3003;6337;49.556;25.594;2024-03-08T02:51:10;58.75;21.85;
12542;PMS3003;6337;49.556;25.594;2024-03-08T02:53:38;45.75;20.75;
12542;PMS3003;6337;49.556;25.594;2024-03-08T02:56:07;38.05;19.90;
12542;PMS3003;6337;49.556;25.594;2024-03-08T02:58:38;30.77;15.25;
12542;PMS3003;6337;49.556;25.594;2024-03-08T03:01:05;35.50;16.35;
12542;PMS3003;6337;49.556;25.594;2024-03-08T03:03:32;32.15;14.40;
12542;PMS3003;6337;49.556;25.594;2024-03-08T03:05:59;23.17;13.23;
12542;PMS3003;6337;49.556;25.594;2024-03-08T03:08:27;21.83;12.48;
12542;PMS3003;6337;49.556;25.594;2024-03-08T03:10:54;26.67;14.48;
12542;PMS3003;6337;49.556;25.594;2024-03-08T03:13:27;28.02;15.25;
12542;PMS3003;6337;49.556;25.594;2024-03-08T03:15:55;33.30;15.88;
12542;PMS3003;6337;49.556;25.594;2024-03-08T03:18:23;23.60;14.13;
12542;PMS3003;6337;49.556;25.594;2024-03-08T03:20:52;21.58;13.90;
12542;PMS3003;6337;49.556;25.594;2024-03-08T03:23:19;22.63;14.57;
12542;PMS3003;6337;49.556;25.594;2024-03-08T03:25:46;33.78;14.88;
12542;PMS3003;6337;49.556;25.594;2024-03-08T03:28:13;25.25;15.52;
12542;PMS3003;6337;49.556;25.594;2024-03-08T03:30:45;34.63;18.58;
12542;PMS3003;6337;49.556;25.594;2024-03-08T03:33:14;34.15;16.75;
12542;PMS3003;6337;49.556;25.594;2024-03-08T03:35:42;42.83;20.63;
12542;PMS3003;6337;49.556;25.594;2024-03-08T03:38:10;44.08;19.00;
12542;PMS3003;6337;49.556;25.594;2024-03-08T03:40:39;32.78;17.13;
12542;PMS3003;6337;49.556;25.594;2024-03-08T03:43:07;38.50;18.52;
12542;PMS3003;6337;49.556;25.594;2024-03-08T03:45:35;27.98;16.65;
12542;PMS3003;6337;49.556;25.594;2024-03-08T03:48:04;47.33;19.88;
12542;PMS3003;6337;49.556;25.594;2024-03-08T03:50:34;37.10;18.80;
12542;PMS3003;6337;49.556;25.594;2024-03-08T03:53:02;93.20;36.95;
12542;PMS3003;6337;49.556;25.594;2024-03-08T03:55:33;73.05;32.95;
12542;PMS3003;6337;49.556;25.594;2024-03-08T03:58:02;50.28;26.60;
12542;PMS3003;6337;49.556;25.594;2024-03-08T04:00:29;61.72;24.73;
12542;PMS3003;6337;49.556;25.594;2024-03-08T04:02:57;65.68;25.17;
12542;PMS3003;6337;49.556;25.594;2024-03-08T04:05:27;64.72;21.88;
12542;PMS3003;6337;49.556;25.594;2024-03-08T04:07:54;38.70;20.42;
12542;PMS3003;6337;49.556;25.594;2024-03-08T04:10:22;37.13;18.55;
12542;PMS3003;6337;49.556;25.594;2024-03-08T04:12:50;38.63;18.33;
12542;PMS3003;6337;49.556;25.594;2024-03-08T04:15:17;56.40;22.75;
12542;PMS3003;6337;49.556;25.594;2024-03-08T04:17:45;38.83;19.90;
12542;PMS3003;6337;49.556;25.594;2024-03-08T04:20:12;54.28;24.35;
12542;PMS3003;6337;49.556;25.594;2024-03-08T04:22:41;52.70;26.05;
12542;PMS3003;6337;49.556;25.594;2024-03-08T04:25:09;60.97;24.50;
12542;PMS3003;6337;49.556;25.594;2024-03-08T04:27:37;55.92;24.67;
12542;PMS3003;6337;49.556;25.594;2024-03-08T04:30:06;50.95;24.88;
12542;PMS3003;6337;49.556;25.594;2024-03-08T04:32:34;57.55;25.50;
12542;PMS3003;6337;49.556;25.594;2024-03-08T04:35:01;51.58;26.52;
12542;PMS3003;6337;49.556;25.594;2024-03-08T04:37:29;56.05;27.40;
12542;PMS3003;6337;49.556;25.594;2024-03-08T04:39:58;59.45;27.55;
12542;PMS3003;6337;49.556;25.594;2024-03-08T04:42:25;52.95;25.38;
12542;PMS3003;6337;49.556;25.594;2024-03-08T04:44:54;50.13;25.85;
12542;PMS3003;6337;49.556;25.594;2024-03-08T04:47:22;55.45;25.00;
12542;PMS3003;6337;49.556;25.594;2024-03-08T04:49:51;49.40;22.10;
12542;PMS3003;6337;49.556;25.594;2024-03-08T04:52:18;45.60;21.05;
12542;PMS3003;6337;49.556;25.594;2024-03-08T04:54:47;48.80;20.05;
12542;PMS3003;6337;49.556;25.594;2024-03-08T04:57:16;38.72;21.63;
12542;PMS3003;6337;49.556;25.594;2024-03-08T04:59:43;41.58;19.83;
12542;PMS3003;6337;49.556;25.594;2024-03-08T05:02:11;53.72;25.58;
12542;PMS3003;6337;49.556;25.594;2024-03-08T05:04:38;63.88;27.05;
12542;PMS3003;6337;49.556;25.594;2024-03-08T05:07:08;46.97;25.92;
12542;PMS3003;6337;49.556;25.594;2024-03-08T05:09:35;60.95;24.17;
12542;PMS3003;6337;49.556;25.594;2024-03-08T05:12:02;58.38;26.85;
12542;PMS3003;6337;49.556;25.594;2024-03-08T05:14:32;55.88;27.70;
12542;PMS3003;6337;49.556;25.594;2024-03-08T05:17:01;64.82;25.90;
12542;PMS3003;6337;49.556;25.594;2024-03-08T05:19:28;45.15;23.35;
12542;PMS3003;6337;49.556;25.594;2024-03-08T05:21:56;50.78;26.65;
12542;PMS3003;6337;49.556;25.594;2024-03-08T05:24:26;52.90;22.55;
12542;PMS3003;6337;49.556;25.594;2024-03-08T05:26:55;53.55;23.25;
12542;PMS3003;6337;49.556;25.594;2024-03-08T05:29:24;47.45;24.40;
12542;PMS3003;6337;49.556;25.594;2024-03-08T05:31:53;50.53;24.17;
12542;PMS3003;6337;49.556;25.594;2024-03-08T05:34:22;65.05;27.98;
12542;PMS3003;6337;49.556;25.594;2024-03-08T05:36:53;64.07;25.80;
12542;PMS3003;6337;49.556;25.594;2024-03-08T05:39:21;64.05;25.08;
12542;PMS3003;6337;49.556;25.594;2024-03-08T05:41:49;79.68;34.70;
12542;PMS3003;6337;49.556;25.594;2024-03-08T05:44:16;94.78;39.25;
12542;PMS3003;6337;49.556;25.594;2024-03-08T05:46:43;81.50;39.33;
12542;PMS3003;6337;49.556;25.594;2024-03-08T05:49:13;76.75;36.60;
12542;PMS3003;6337;49.556;25.594;2024-03-08T05:51:40;91.53;34.67;
12542;PMS3003;6337;49.556;25.594;2024-03-08T05:54:09;83.63;36.65;
12542;PMS3003;6337;49.556;25.594;2024-03-08T05:56:39;72.68;35.97;
12542;PMS3003;6337;49.556;25.594;2024-03-08T05:59:07;80.60;32.80;
12542;PMS3003;6337;49.556;25.594;2024-03-08T06:01:35;65.25;29.77;
12542;PMS3003;6337;49.556;25.594;2024-03-08T06:04:03;88.60;34.13;
12542;PMS3003;6337;49.556;25.594;2024-03-08T06:06:32;63.03;28.60;
12542;PMS3003;6337;49.556;25.594;2024-03-08T06:08:59;64.60;28.92;
12542;PMS3003;6337;49.556;25.594;2024-03-08T06:11:36;57.25;28.13;
12542;PMS3003;6337;49.556;25.594;2024-03-08T06:14:05;57.33;27.58;
12542;PMS3003;6337;49.556;25.594;2024-03-08T06:16:32;56.45;28.20;
12542;PMS3003;6337;49.556;25.594;2024-03-08T06:19:01;56.70;26.13;
12542;PMS3003;6337;49.556;25.594;2024-03-08T06:21:28;94.97;32.25;
12542;PMS3003;6337;49.556;25.594;2024-03-08T06:23:59;131.15;38.03;
12542;PMS3003;6337;49.556;25.594;2024-03-08T06:26:26;59.13;31.80;
12542;PMS3003;6337;49.556;25.594;2024-03-08T06:28:54;67.82;29.67;
12542;PMS3003;6337;49.556;25.594;2024-03-08T06:31:21;73.57;30.98;
12542;PMS3003;6337;49.556;25.594;2024-03-08T06:33:48;68.15;32.22;
12542;PMS3003;6337;49.556;25.594;2024-03-08T06:36:19;61.33;31.45;
12542;PMS3003;6337;49.556;25.594;2024-03-08T06:38:56;70.90;29.23;
12542;PMS3003;6337;49.556;25.594;2024-03-08T06:41:25;57.03;28.83;
12542;PMS3003;6337;49.556;25.594;2024-03-08T06:43:56;39.88;23.10;
12542;PMS3003;6337;49.556;25.594;2024-03-08T06:46:26;47.03;23.38;
12542;PMS3003;6337;49.556;25.594;2024-03-08T06:48:53;46.08;21.23;
12542;PMS3003;6337;49.556;25.594;2024-03-08T06:51:21;54.28;27.17;
12542;PMS3003;6337;49.556;25.594;2024-03-08T06:53:51;56.35;24.75;
12542;PMS3003;6337;49.556;25.594;2024-03-08T06:56:18;27.35;14.23;
12542;PMS3003;6337;49.556;25.594;2024-03-08T06:58:45;32.17;13.80;
12542;PMS3003;6337;49.556;25.594;2024-03-08T07:01:13;23.77;13.75;
12542;PMS3003;6337;49.556;25.594;2024-03-08T07:03:43;25.38;13.77;
12542;PMS3003;6337;49.556;25.594;2024-03-08T07:06:11;16.55;10.40;
12542;PMS3003;6337;49.556;25.594;2024-03-08T07:08:39;21.20;11.90;
12542;PMS3003;6337;49.556;25.594;2024-03-08T07:11:08;63.78;23.52;
12542;PMS3003;6337;49.556;25.594;2024-03-08T07:13:37;23.33;12.18;
12542;PMS3003;6337;49.556;25.594;2024-03-08T07:16:05;27.52;12.75;
12542;PMS3003;6337;49.556;25.594;2024-03-08T07:18:33;63.80;23.08;
12542;PMS3003;6337;49.556;25.594;2024-03-08T07:21:01;31.88;14.38;
12542;PMS3003;6337;49.556;25.594;2024-03-08T07:23:28;83.80;30.70;
12542;PMS3003;6337;49.556;25.594;2024-03-08T07:26:29;47.58;18.35;
12542;PMS3003;6337;49.556;25.594;2024-03-08T07:28:57;43.40;19.63;
12542;PMS3003;6337;49.556;25.594;2024-03-08T07:31:25;41.88;20.73;
12542;PMS3003;6337;49.556;25.594;2024-03-08T07:34:11;21.10;12.98;
12542;PMS3003;6337;49.556;25.594;2024-03-08T07:36:38;19.85;11.02;
12542;PMS3003;6337;49.556;25.594;2024-03-08T07:39:07;23.75;12.70;
12542;PMS3003;6337;49.556;25.594;2024-03-08T07:41:38;21.85;12.85;
12542;PMS3003;6337;49.556;25.594;2024-03-08T07:44:06;25.77;12.55;
12542;PMS3003;6337;49.556;25.594;2024-03-08T07:46:34;32.45;13.77;
12542;PMS3003;6337;49.556;25.594;2024-03-08T07:49:02;17.30;10.00;
12542;PMS3003;6337;49.556;25.594;2024-03-08T07:51:31;23.45;14.25;
12542;PMS3003;6337;49.556;25.594;2024-03-08T07:53:59;27.95;13.10;
12542;PMS3003;6337;49.556;25.594;2024-03-08T07:56:30;24.25;10.15;
12542;PMS3003;6337;49.556;25.594;2024-03-08T07:59:00;19.23;10.40;
12542;PMS3003;6337;49.556;25.594;2024-03-08T08:01:29;19.73;11.18;
12542;PMS3003;6337;49.556;25.594;2024-03-08T08:03:59;35.67;14.18;
12542;PMS3003;6337;49.556;25.594;2024-03-08T08:06:28;21.15;12.82;
12542;PMS3003;6337;49.556;25.594;2024-03-08T08:09:06;14.48;9.75;
12542;PMS3003;6337;49.556;25.594;2024-03-08T08:11:39;20.70;11.63;
12542;PMS3003;6337;49.556;25.594;2024-03-08T08:14:11;21.30;11.23;
12542;PMS3003;6337;49.556;25.594;2024-03-08T08:16:39;20.02;10.73;
12542;PMS3003;6337;49.556;25.594;2024-03-08T08:21:53;22.23;11.90;
12542;PMS3003;6337;49.556;25.594;2024-03-08T08:24:23;15.90;9.55;
12542;PMS3003;6337;49.556;25.594;2024-03-08T08:26:51;22.57;11.50;
12542;PMS3003;6337;49.556;25.594;2024-03-08T08:29:24;15.95;10.15;
12542;PMS3003;6337;49.556;25.594;2024-03-08T08:31:53;16.05;9.55;
12542;PMS3003;6337;49.556;25.594;2024-03-08T08:34:20;18.73;10.40;
12542;PMS3003;6337;49.556;25.594;2024-03-08T08:36:49;17.50;10.53;
12542;PMS3003;6337;49.556;25.594;2024-03-08T08:39:17;26.20;11.40;
12542;PMS3003;6337;49.556;25.594;2024-03-08T08:41:47;21.73;12.87;
12542;PMS3003;6337;49.556;25.594;2024-03-08T08:44:16;22.13;11.97;
12542;PMS3003;6337;49.556;25.594;2024-03-08T08:46:46;23.50;10.75;
12542;PMS3003;6337;49.556;25.594;2024-03-08T08:49:22;16.17;11.68;
12542;PMS3003;6337;49.556;25.594;2024-03-08T08:51:53;23.20;11.47;
12542;PMS3003;6337;49.556;25.594;2024-03-08T08:54:24;18.30;11.50;
12542;PMS3003;6337;49.556;25.594;2024-03-08T08:56:54;17.43;11.17;
12542;PMS3003;6337;49.556;25.594;2024-03-08T08:59:21;20.50;11.50;
12542;PMS3003;6337;49.556;25.594;2024-03-08T09:01:52;30.43;10.70;
12542;PMS3003;6337;49.556;25.594;2024-03-08T09:04:21;21.83;11.40;
12542;PMS3003;6337;49.556;25.594;2024-03-08T09:06:52;21.10;13.30;
12542;PMS3003;6337;49.556;25.594;2024-03-08T09:09:23;21.73;12.20;
12542;PMS3003;6337;49.556;25.594;2024-03-08T09:11:54;20.60;11.17;
12542;PMS3003;6337;49.556;25.594;2024-03-08T09:14:35;19.97;11.87;
12542;PMS3003;6337;49.556;25.594;2024-03-08T09:17:04;21.53;12.63;
12542;PMS3003;6337;49.556;25.594;2024-03-08T09:19:38;19.97;10.57;
12542;PMS3003;6337;49.556;25.594;2024-03-08T09:22:06;21.93;11.40;
12542;PMS3003;6337;49.556;25.594;2024-03-08T09:24:33;23.80;11.00;
12542;PMS3003;6337;49.556;25.594;2024-03-08T09:27:01;30.00;13.87;
12542;PMS3003;6337;49.556;25.594;2024-03-08T09:29:30;23.97;12.57;
12542;PMS3003;6337;49.556;25.594;2024-03-08T09:32:01;22.37;12.10;
12542;PMS3003;6337;49.556;25.594;2024-03-08T09:34:33;21.57;12.30;
12542;PMS3003;6337;49.556;25.594;2024-03-08T09:37:06;20.67;11.10;
12542;PMS3003;6337;49.556;25.594;2024-03-08T09:39:35;18.70;12.70;
12542;PMS3003;6337;49.556;25.594;2024-03-08T09:42:04;20.73;11.37;
12542;PMS3003;6337;49.556;25.594;2024-03-08T09:44:46;33.20;13.60;
12542;PMS3003;6337;49.556;25.594;2024-03-08T09:47:15;23.80;13.10;
12542;PMS3003;6337;49.556;25.594;2024-03-08T09:49:51;21.43;10.97;
12542;PMS3003;6337;49.556;25.594;2024-03-08T09:52:22;20.37;11.83;
12542;PMS3003;6337;49.556;25.594;2024-03-08T09:54:55;22.30;12.20;
12542;PMS3003;6337;49.556;25.594;2024-03-08T09:57:23;26.00;10.77;
12542;PMS3003;6337;49.556;25.594;2024-03-08T09:59:57;20.77;12.27;
12542;PMS3003;6337;49.556;25.594;2024-03-08T10:02:28;17.70;11.00;
12542;PMS3003;6337;49.556;25.594;2024-03-08T10:05:13;19.00;11.70;
12542;PMS3003;6337;49.556;25.594;2024-03-08T10:07:41;21.90;11.20;
12542;PMS3003;6337;49.556;25.594;2024-03-08T10:10:09;18.70;10.70;
12542;PMS3003;6337;49.556;25.594;2024-03-08T10:12:39;23.27;10.40;
12542;PMS3003;6337;49.556;25.594;2024-03-08T10:15:08;24.00;11.10;
12542;PMS3003;6337;49.556;25.594;2024-03-08T10:17:40;21.47;12.23;
12542;PMS3003;6337;49.556;25.594;2024-03-08T10:20:13;19.50;12.93;
12542;PMS3003;6337;49.556;25.594;2024-03-08T10:22:44;21.17;11.53;
12542;PMS3003;6337;49.556;25.594;2024-03-08T10:25:12;26.03;13.17;
12542;PMS3003;6337;49.556;25.594;2024-03-08T10:27:43;19.73;10.97;
12542;PMS3003;6337;49.556;25.594;2024-03-08T10:30:14;24.67;14.00;
12542;PMS3003;6337;49.556;25.594;2024-03-08T10:32:52;25.10;12.47;
12542;PMS3003;6337;49.556;25.594;2024-03-08T10:35:20;32.77;13.30;
12542;PMS3003;6337;49.556;25.594;2024-03-08T10:37:48;25.17;13.23;
12542;PMS3003;6337;49.556;25.594;2024-03-08T10:40:25;27.40;14.47;
12542;PMS3003;6337;49.556;25.594;2024-03-08T10:42:53;26.40;13.50;
12542;PMS3003;6337;49.556;25.594;2024-03-08T10:45:37;31.77;14.90;
12542;PMS3003;6337;49.556;25.594;2024-03-08T10:48:16;36.33;15.40;
12542;PMS3003;6337;49.556;25.594;2024-03-08T10:50:56;28.40;15.10;
12542;PMS3003;6337;49.556;25.594;2024-03-08T10:53:26;28.73;14.80;
12542;PMS3003;6337;49.556;25.594;2024-03-08T10:55:54;33.03;15.33;
12542;PMS3003;6337;49.556;25.594;2024-03-08T10:58:24;21.30;13.70;
12542;PMS3003;6337;49.556;25.594;2024-03-08T11:00:53;27.83;14.37;
12542;PMS3003;6337;49.556;25.594;2024-03-08T11:06:41;38.03;15.27;
12542;PMS3003;6337;49.556;25.594;2024-03-08T11:09:27;29.80;16.10;
12542;PMS3003;6337;49.556;25.594;2024-03-08T11:14:51;37.87;16.40;
12542;PMS3003;6337;49.556;25.594;2024-03-08T11:17:26;28.90;15.27;
12542;PMS3003;6337;49.556;25.594;2024-03-08T11:22:53;34.20;16.90;
12542;PMS3003;6337;49.556;25.594;2024-03-08T11:25:34;29.70;16.07;
12542;PMS3003;6337;49.556;25.594;2024-03-08T11:28:11;27.17;15.33;
12542;PMS3003;6337;49.556;25.594;2024-03-08T11:30:46;31.67;15.47;
12542;PMS3003;6337;49.556;25.594;2024-03-08T11:33:15;29.63;17.10;
12542;PMS3003;6337;49.556;25.594;2024-03-08T11:35:45;30.53;15.93;
12542;PMS3003;6337;49.556;25.594;2024-03-08T11:38:14;41.43;18.90;
12542;PMS3003;6337;49.556;25.594;2024-03-08T11:40:45;29.83;17.40;
12542;PMS3003;6337;49.556;25.594;2024-03-08T11:43:16;36.00;16.77;
12542;PMS3003;6337;49.556;25.594;2024-03-08T11:45:45;39.60;17.37;
12542;PMS3003;6337;49.556;25.594;2024-03-08T11:48:14;29.90;17.20;
12542;PMS3003;6337;49.556;25.594;2024-03-08T11:50:51;40.80;17.50;
12542;PMS3003;6337;49.556;25.594;2024-03-08T11:53:26;27.80;14.93;
12542;PMS3003;6337;49.556;25.594;2024-03-08T11:55:55;36.73;15.63;
12542;PMS3003;6337;49.556;25.594;2024-03-08T11:58:34;27.40;13.93;
12542;PMS3003;6337;49.556;25.594;2024-03-08T12:01:03;25.37;14.27;
12542;PMS3003;6337;49.556;25.594;2024-03-08T12:03:36;30.30;14.47;
12542;PMS3003;6337;49.556;25.594;2024-03-08T12:06:07;24.67;14.17;
12542;PMS3003;6337;49.556;25.594;2024-03-08T12:08:36;25.73;13.13;
12542;PMS3003;6337;49.556;25.594;2024-03-08T12:11:03;23.50;12.80;
12542;PMS3003;6337;49.556;25.594;2024-03-08T12:13:35;17.90;11.13;
12542;PMS3003;6337;49.556;25.594;2024-03-08T12:16:06;19.67;11.47;
12542;PMS3003;6337;49.556;25.594;2024-03-08T12:18:37;20.53;12.63;
12542;PMS3003;6337;49.556;25.594;2024-03-08T12:21:06;32.90;13.07;
12542;PMS3003;6337;49.556;25.594;2024-03-08T12:23:48;24.67;13.00;
12542;PMS3003;6337;49.556;25.594;2024-03-08T12:26:30;28.03;13.93;
12542;PMS3003;6337;49.556;25.594;2024-03-08T12:31:41;19.43;11.00;
12542;PMS3003;6337;49.556;25.594;2024-03-08T12:34:11;19.17;10.80;
12542;PMS3003;6337;49.556;25.594;2024-03-08T12:36:45;21.53;10.00;
12542;PMS3003;6337;49.556;25.594;2024-03-08T12:39:18;12.87;8.80;
12542;PMS3003;6337;49.556;25.594;2024-03-08T12:41:52;20.00;12.53;
12542;PMS3003;6337;49.556;25.594;2024-03-08T12:44:22;16.87;10.60;
12542;PMS3003;6337;49.556;25.594;2024-03-08T12:46:50;27.80;11.10;
12542;PMS3003;6337;49.556;25.594;2024-03-08T12:49:20;15.53;9.37;
12542;PMS3003;6337;49.556;25.594;2024-03-08T12:51:57;19.50;12.33;
12542;PMS3003;6337;49.556;25.594;2024-03-08T12:54:26;16.40;9.60;
12542;PMS3003;6337;49.556;25.594;2024-03-08T12:57:06;17.40;11.93;
12542;PMS3003;6337;49.556;25.594;2024-03-08T13:00:13;13.70;9.00;
12542;PMS3003;6337;49.556;25.594;2024-03-08T13:02:55;14.80;8.40;
12542;PMS3003;6337;49.556;25.594;2024-03-08T13:05:24;17.10;10.20;
12542;PMS3003;6337;49.556;25.594;2024-03-08T13:07:54;17.40;8.53;
12542;PMS3003;6337;49.556;25.594;2024-03-08T13:10:22;15.03;10.30;
12542;PMS3003;6337;49.556;25.594;2024-03-08T13:12:51;18.87;10.40;
12542;PMS3003;6337;49.556;25.594;2024-03-08T13:15:19;22.07;10.57;
12542;PMS3003;6337;49.556;25.594;2024-03-08T13:17:46;13.27;9.37;
12542;PMS3003;6337;49.556;25.594;2024-03-08T13:20:15;11.33;8.27;
12542;PMS3003;6337;49.556;25.594;2024-03-08T13:22:47;11.27;8.30;
12542;PMS3003;6337;49.556;25.594;2024-03-08T13:25:28;13.10;8.53;
12542;PMS3003;6337;49.556;25.594;2024-03-08T13:27:55;15.07;7.77;
12542;PMS3003;6337;49.556;25.594;2024-03-08T13:30:25;14.40;9.13;
12542;PMS3003;6337;49.556;25.594;2024-03-08T13:32:56;14.80;8.60;
12542;PMS3003;6337;49.556;25.594;2024-03-08T13:35:24;13.73;8.00;
12542;PMS3003;6337;49.556;25.594;2024-03-08T13:37:57;17.57;9.40;
12542;PMS3003;6337;49.556;25.594;2024-03-08T13:40:26;15.50;8.67;
12542;PMS3003;6337;49.556;25.594;2024-03-08T13:42:56;8.63;7.40;
12542;PMS3003;6337;49.556;25.594;2024-03-08T13:45:27;18.13;8.03;
12542;PMS3003;6337;49.556;25.594;2024-03-08T13:47:55;12.93;8.73;
12542;PMS3003;6337;49.556;25.594;2024-03-08T13:50:24;7.47;6.73;
12542;PMS3003;6337;49.556;25.594;2024-03-08T13:52:57;14.90;10.00;
12542;PMS3003;6337;49.556;25.594;2024-03-08T13:58:24;17.87;8.23;
12542;PMS3003;6337;49.556;25.594;2024-03-08T14:00:56;12.70;8.77;
12542;PMS3003;6337;49.556;25.594;2024-03-08T14:03:37;12.83;8.50;
12542;PMS3003;6337;49.556;25.594;2024-03-08T14:06:11;11.50;7.67;
12542;PMS3003;6337;49.556;25.594;2024-03-08T14:08:40;20.47;9.67;
12542;PMS3003;6337;49.556;25.594;2024-03-08T14:11:11;15.73;9.73;
12542;PMS3003;6337;49.556;25.594;2024-03-08T14:13:44;13.70;8.47;
12542;PMS3003;6337;49.556;25.594;2024-03-08T14:16:12;13.20;8.20;
12542;PMS3003;6337;49.556;25.594;2024-03-08T14:18:42;12.40;8.80;
12542;PMS3003;6337;49.556;25.594;2024-03-08T14:21:11;25.70;13.57;
12542;PMS3003;6337;49.556;25.594;2024-03-08T14:23:40;14.37;10.23;
12542;PMS3003;6337;49.556;25.594;2024-03-08T14:26:15;14.13;8.97;
12542;PMS3003;6337;49.556;25.594;2024-03-08T14:28:49;19.20;10.50;
12542;PMS3003;6337;49.556;25.594;2024-03-08T14:31:19;11.97;10.43;
12542;PMS3003;6337;49.556;25.594;2024-03-08T14:33:52;21.80;11.03;
12542;PMS3003;6337;49.556;25.594;2024-03-08T14:36:22;15.23;10.33;
12542;PMS3003;6337;49.556;25.594;2024-03-08T14:38:55;17.83;9.63;
12542;PMS3003;6337;49.556;25.594;2024-03-08T14:41:25;15.63;7.50;
12542;PMS3003;6337;49.556;25.594;2024-03-08T14:43:52;16.37;9.63;
12542;PMS3003;6337;49.556;25.594;2024-03-08T14:46:21;16.60;9.10;
12542;PMS3003;6337;49.556;25.594;2024-03-08T14:48:50;11.43;8.43;
12542;PMS3003;6337;49.556;25.594;2024-03-08T14:51:19;13.50;8.30;
12542;PMS3003;6337;49.556;25.594;2024-03-08T14:53:52;15.30;9.40;
12542;PMS3003;6337;49.556;25.594;2024-03-08T14:56:21;16.10;9.17;
12542;PMS3003;6337;49.556;25.594;2024-03-08T14:58:54;15.50;9.37;
12542;PMS3003;6337;49.556;25.594;2024-03-08T15:01:26;14.80;9.10;
12542;PMS3003;6337;49.556;25.594;2024-03-08T15:03:56;16.97;8.03;
12542;PMS3003;6337;49.556;25.594;2024-03-08T15:06:33;9.07;7.00;
12542;PMS3003;6337;49.556;25.594;2024-03-08T15:09:02;12.50;7.80;
12542;PMS3003;6337;49.556;25.594;2024-03-08T15:11:37;19.97;9.40;
12542;PMS3003;6337;49.556;25.594;2024-03-08T15:14:07;15.80;8.70;
12542;PMS3003;6337;49.556;25.594;2024-03-08T15:16:40;8.53;7.47;
12542;PMS3003;6337;49.556;25.594;2024-03-08T15:19:08;19.03;9.10;
12542;PMS3003;6337;49.556;25.594;2024-03-08T15:21:37;11.77;8.20;
12542;PMS3003;6337;49.556;25.594;2024-03-08T15:24:11;18.00;8.97;